Time;durP1;ratioP1;P1;durP2;ratioP2;P2;SDS_P1;SDS_P2;PMS_P1;PMS_P2;Temp;Humidity;BMP_temperature;BMP_pressure;BME280_temperature;BME280_humidity;BME280_pressure;Samples;Min_cycle;Max_cycle;Signal;HPM_P1;HPM_P2
2022/10/24 00:01:30;;;;;;;;;;;14.00;99.90;;;;;;6156096;23;19916;-83
2022/10/24 00:03:56;;;;;;;;;;;14.00;99.90;;;;;;6130715;23;19920;-83
2022/10/24 00:06:22;;;;;;;;;;;13.90;99.90;;;;;;6156383;23;19920;-83
2022/10/24 00:08:48;;;;;;;;;;;13.80;99.90;;;;;;6179558;23;19927;-83
2022/10/24 00:11:15;;;;;;;;;;;13.80;99.90;;;;;;6180238;23;19923;-84
2022/10/24 00:13:41;;;;;;;;;;;13.70;99.90;;;;;;6179972;23;20316;-84
2022/10/24 00:16:07;;;;;;;;;;;13.70;99.90;;;;;;6180331;23;19952;-83
2022/10/24 00:18:32;;;;;;;;;;;13.60;99.90;;;;;;6180584;23;20233;-84
2022/10/24 00:20:58;;;;;;;;;;;13.60;99.90;;;;;;6154715;23;19916;-84
2022/10/24 00:23:24;;;;;;;;;;;13.60;99.90;;;;;;6180594;23;19920;-83
2022/10/24 00:25:49;;;;;;;;;;;13.60;99.90;;;;;;6154567;23;19920;-84
2022/10/24 00:28:15;;;;;;;;;;;13.80;99.90;;;;;;6156273;23;19916;-83
2022/10/24 00:30:40;;;;;;;;;;;13.80;99.90;;;;;;6179781;23;19971;-84
2022/10/24 00:33:06;;;;;;;;;;;13.90;99.90;;;;;;6155216;23;20328;-84
2022/10/24 00:35:32;;;;;;;;;;;13.90;99.90;;;;;;6155122;23;20289;-84
2022/10/24 00:37:57;;;;;;;;;;;14.00;99.90;;;;;;6155484;23;20226;-84
2022/10/24 00:40:23;;;;;;;;;;;14.00;99.90;;;;;;6180267;23;19916;-84
2022/10/24 00:42:49;;;;;;;;;;;14.00;99.90;;;;;;6179055;23;19920;-84
2022/10/24 00:45:33;;;;;;;;;;;14.10;99.90;;;;;;6130794;23;19920;-84
2022/10/24 00:47:59;;;;;;;;;;;14.00;99.90;;;;;;6180193;23;19912;-84
2022/10/24 00:50:25;;;;;;;;;;;14.00;99.90;;;;;;6155762;23;19927;-84
2022/10/24 00:52:50;;;;;;;;;;;14.00;99.90;;;;;;6178739;23;19991;-84
2022/10/24 00:55:16;;;;;;;;;;;14.10;99.90;;;;;;6179875;23;19995;-83
2022/10/24 00:57:48;;;;;;;;;;;14.00;99.90;;;;;;6177680;23;20628;-85
2022/10/24 01:00:15;;;;;;;;;;;14.00;99.90;;;;;;6155096;23;19916;-84
2022/10/24 01:02:41;;;;;;;;;;;14.00;99.90;;;;;;6179225;23;19920;-86
2022/10/24 01:05:08;;;;;;;;;;;14.00;99.90;;;;;;6155737;23;19920;-85
2022/10/24 01:07:46;;;;;;;;;;;14.00;99.90;;;;;;6155382;23;19916;-84
2022/10/24 01:10:24;;;;;;;;;;;14.10;99.90;;;;;;6154456;23;20320;-84
2022/10/24 01:13:05;;;;;;;;;;;14.20;99.90;;;;;;6154610;23;19920;-84
2022/10/24 01:15:37;;;;;;;;;;;14.20;99.90;;;;;;6155406;23;19916;-84
2022/10/24 01:18:11;;;;;;;;;;;14.30;99.90;;;;;;6155013;23;19923;-83
2022/10/24 01:20:43;;;;;;;;;;;14.40;99.90;;;;;;6155061;23;19920;-84
2022/10/24 01:23:27;;;;;;;;;;;14.40;99.90;;;;;;6180419;23;19916;-84
2022/10/24 01:26:04;;;;;;;;;;;14.50;99.90;;;;;;6179621;23;19920;-85
2022/10/24 01:28:36;;;;;;;;;;;14.60;99.90;;;;;;6155316;23;19920;-83
2022/10/24 01:31:24;;;;;;;;;;;14.60;99.90;;;;;;6154903;23;19965;-83
2022/10/24 01:33:53;;;;;;;;;;;14.60;99.90;;;;;;6154833;23;19998;-83
2022/10/24 01:36:24;;;;;;;;;;;14.50;99.90;;;;;;6180303;23;19916;-84
2022/10/24 01:38:53;;;;;;;;;;;14.60;99.90;;;;;;6154164;23;19966;-84
2022/10/24 01:41:20;;;;;;;;;;;14.60;99.90;;;;;;6179921;23;19967;-83
2022/10/24 01:43:55;;;;;;;;;;;14.60;99.90;;;;;;6154969;23;20170;-87
2022/10/24 01:46:23;;;;;;;;;;;14.80;99.90;;;;;;6179380;23;20252;-83
2022/10/24 01:48:55;;;;;;;;;;;14.70;99.90;;;;;;6154345;23;19916;-84
2022/10/24 01:51:24;;;;;;;;;;;14.70;99.90;;;;;;6155043;23;20336;-84
2022/10/24 01:53:50;;;;;;;;;;;14.70;99.90;;;;;;6179311;23;20428;-84
2022/10/24 01:56:15;;;;;;;;;;;14.70;99.90;;;;;;6179606;23;19951;-84
2022/10/24 01:58:41;;;;;;;;;;;14.60;99.90;;;;;;6180106;23;19916;-83
2022/10/24 02:01:12;;;;;;;;;;;14.60;99.90;;;;;;6153667;23;20716;-84
2022/10/24 02:03:43;;;;;;;;;;;14.50;99.90;;;;;;6179100;23;19916;-84
2022/10/24 02:06:15;;;;;;;;;;;14.40;99.90;;;;;;6154256;23;19990;-83
2022/10/24 02:08:42;;;;;;;;;;;14.50;99.90;;;;;;6154337;23;19959;-83
2022/10/24 02:11:08;;;;;;;;;;;14.50;99.90;;;;;;6179207;23;19920;-83
2022/10/24 02:13:38;;;;;;;;;;;14.50;99.90;;;;;;6180121;23;20319;-83
2022/10/24 02:16:05;;;;;;;;;;;14.60;99.90;;;;;;6154842;23;19916;-83
2022/10/24 02:18:31;;;;;;;;;;;14.60;99.90;;;;;;6155349;23;20339;-82
2022/10/24 02:21:02;;;;;;;;;;;14.60;99.90;;;;;;6154035;23;19931;-82
2022/10/24 02:23:35;;;;;;;;;;;14.60;99.90;;;;;;6155233;23;19974;-83
2022/10/24 02:26:03;;;;;;;;;;;14.60;99.90;;;;;;6179693;23;19962;-83
2022/10/24 02:28:32;;;;;;;;;;;14.60;99.90;;;;;;6180043;23;19951;-82
2022/10/24 02:30:59;;;;;;;;;;;14.60;99.90;;;;;;6179608;23;19986;-83
2022/10/24 02:33:26;;;;;;;;;;;14.60;99.90;;;;;;6155459;23;19978;-82
2022/10/24 02:35:52;;;;;;;;;;;14.50;99.90;;;;;;6155084;23;20374;-84
2022/10/24 02:38:32;;;;;;;;;;;14.50;99.90;;;;;;6154178;23;19920;-83
2022/10/24 02:40:59;;;;;;;;;;;14.50;99.90;;;;;;6178929;23;19920;-83
2022/10/24 02:43:26;;;;;;;;;;;14.50;99.90;;;;;;6179931;23;19948;-83
2022/10/24 02:45:53;;;;;;;;;;;14.60;99.90;;;;;;6154884;23;20012;-82
2022/10/24 02:48:20;;;;;;;;;;;14.60;99.90;;;;;;6178683;23;20673;-83
2022/10/24 02:50:46;;;;;;;;;;;14.70;99.90;;;;;;6179994;23;19920;-83
2022/10/24 02:53:13;;;;;;;;;;;14.70;99.90;;;;;;6179011;23;19927;-83
2022/10/24 02:55:39;;;;;;;;;;;14.70;99.90;;;;;;6179495;23;20351;-83
2022/10/24 02:58:04;;;;;;;;;;;14.70;99.90;;;;;;6179051;23;19920;-83
2022/10/24 03:00:30;;;;;;;;;;;14.70;99.90;;;;;;6153805;23;20291;-83
2022/10/24 03:02:55;;;;;;;;;;;14.70;99.90;;;;;;6154016;23;20339;-85
2022/10/24 03:05:21;;;;;;;;;;;14.80;99.90;;;;;;6179500;23;19983;-83
2022/10/24 03:07:46;;;;;;;;;;;14.80;99.90;;;;;;6154642;23;19920;-83
2022/10/24 03:10:12;;;;;;;;;;;14.90;99.90;;;;;;6178266;23;19927;-82
2022/10/24 03:12:38;;;;;;;;;;;14.80;99.90;;;;;;6154502;23;19916;-83
2022/10/24 03:15:03;;;;;;;;;;;14.80;99.90;;;;;;6154303;23;19916;-83
2022/10/24 03:17:29;;;;;;;;;;;14.80;99.90;;;;;;6154549;23;19999;-83
2022/10/24 03:19:54;;;;;;;;;;;14.70;99.90;;;;;;6178883;23;19968;-83
2022/10/24 03:22:20;;;;;;;;;;;14.70;99.90;;;;;;6129860;23;20005;-83
2022/10/24 03:24:45;;;;;;;;;;;14.70;99.90;;;;;;6181813;23;19920;-83
2022/10/24 03:27:11;;;;;;;;;;;14.80;99.90;;;;;;6155929;23;19920;-82
2022/10/24 03:29:37;;;;;;;;;;;14.80;99.90;;;;;;6181620;23;19927;-83
2022/10/24 03:32:02;;;;;;;;;;;14.80;99.90;;;;;;6180958;23;19920;-83
2022/10/24 03:34:28;;;;;;;;;;;14.80;99.90;;;;;;6156906;23;19916;-83
2022/10/24 03:36:54;;;;;;;;;;;14.80;99.90;;;;;;6156981;23;19916;-83
2022/10/24 03:39:19;;;;;;;;;;;14.80;99.90;;;;;;6156016;23;19983;-82
2022/10/24 03:41:45;;;;;;;;;;;14.90;99.90;;;;;;6156705;23;19916;-83
2022/10/24 03:44:10;;;;;;;;;;;14.90;99.90;;;;;;6131431;23;19916;-82
2022/10/24 03:46:36;;;;;;;;;;;14.90;99.90;;;;;;6181519;23;19924;-84
2022/10/24 03:49:01;;;;;;;;;;;14.80;99.90;;;;;;6156311;23;19927;-85
2022/10/24 03:51:27;;;;;;;;;;;14.70;99.90;;;;;;6180255;23;20327;-83
2022/10/24 03:53:52;;;;;;;;;;;14.70;99.90;;;;;;6155284;23;19927;-82
2022/10/24 03:56:18;;;;;;;;;;;14.80;99.90;;;;;;6155567;23;19923;-82
2022/10/24 03:58:43;;;;;;;;;;;14.70;99.90;;;;;;6156078;23;19931;-83
2022/10/24 04:01:15;;;;;;;;;;;14.70;99.90;;;;;;6179989;23;19927;-82
2022/10/24 04:03:41;;;;;;;;;;;14.60;99.90;;;;;;6157496;23;20320;-82
2022/10/24 04:06:06;;;;;;;;;;;14.60;99.90;;;;;;6130260;23;19962;-83
2022/10/24 04:08:32;;;;;;;;;;;14.50;99.90;;;;;;6155969;23;19926;-82
2022/10/24 04:10:57;;;;;;;;;;;14.50;99.90;;;;;;6154960;23;20381;-83
2022/10/24 04:13:23;;;;;;;;;;;14.40;99.90;;;;;;6180026;23;20313;-82
2022/10/24 04:15:48;;;;;;;;;;;14.30;99.90;;;;;;6153114;23;19920;-83
2022/10/24 04:18:14;;;;;;;;;;;14.20;99.90;;;;;;6129626;23;19927;-83
2022/10/24 04:20:40;;;;;;;;;;;14.20;99.90;;;;;;6180452;23;19927;-82
2022/10/24 04:23:05;;;;;;;;;;;14.10;99.90;;;;;;6131450;23;20351;-84
2022/10/24 04:25:31;;;;;;;;;;;14.00;99.90;;;;;;6131200;23;19939;-82
2022/10/24 04:27:56;;;;;;;;;;;13.90;99.90;;;;;;6179466;23;19995;-81
2022/10/24 04:30:22;;;;;;;;;;;13.90;99.90;;;;;;6129776;23;19971;-82
2022/10/24 04:32:47;;;;;;;;;;;13.80;99.90;;;;;;6178736;23;19970;-82
2022/10/24 04:35:13;;;;;;;;;;;13.80;99.90;;;;;;6150446;23;20409;-82
2022/10/24 04:37:39;;;;;;;;;;;13.70;99.90;;;;;;6179695;23;20308;-85
2022/10/24 04:40:05;;;;;;;;;;;13.70;99.90;;;;;;6130434;23;19920;-83
2022/10/24 04:42:30;;;;;;;;;;;13.70;99.90;;;;;;6178356;23;19920;-83
2022/10/24 04:44:56;;;;;;;;;;;13.70;99.90;;;;;;6131403;23;19924;-82
2022/10/24 04:47:21;;;;;;;;;;;13.70;99.90;;;;;;6155367;23;20251;-82
2022/10/24 04:49:47;;;;;;;;;;;13.70;99.90;;;;;;6155959;23;19920;-83
2022/10/24 04:52:12;;;;;;;;;;;13.70;99.90;;;;;;6155375;23;19920;-82
2022/10/24 04:54:38;;;;;;;;;;;13.60;99.90;;;;;;6181082;23;20276;-83
2022/10/24 04:57:03;;;;;;;;;;;13.60;99.90;;;;;;6131347;23;19920;-82
2022/10/24 04:59:29;;;;;;;;;;;13.60;99.90;;;;;;6179983;23;19924;-82
2022/10/24 05:01:54;;;;;;;;;;;13.60;99.90;;;;;;6154334;23;19999;-83
2022/10/24 05:04:20;;;;;;;;;;;13.50;99.90;;;;;;6153805;23;19916;-82
2022/10/24 05:06:46;;;;;;;;;;;13.50;99.90;;;;;;6178854;23;20035;-83
2022/10/24 05:09:13;;;;;;;;;;;13.60;99.90;;;;;;6151156;23;19928;-83
2022/10/24 05:11:38;;;;;;;;;;;13.60;99.90;;;;;;6178509;23;19956;-82
2022/10/24 05:14:04;;;;;;;;;;;13.60;99.90;;;;;;6179724;23;19919;-82
2022/10/24 05:16:29;;;;;;;;;;;13.60;99.90;;;;;;6130717;23;19966;-82
2022/10/24 05:18:55;;;;;;;;;;;13.60;99.90;;;;;;6154443;23;19966;-83
2022/10/24 05:21:20;;;;;;;;;;;13.60;99.90;;;;;;6153995;23;19919;-82
2022/10/24 05:23:46;;;;;;;;;;;13.60;99.90;;;;;;6155601;23;19924;-81
2022/10/24 05:26:12;;;;;;;;;;;13.70;99.90;;;;;;6154822;23;19997;-82
2022/10/24 05:28:37;;;;;;;;;;;13.60;99.90;;;;;;6179660;23;19995;-82
2022/10/24 05:31:03;;;;;;;;;;;13.60;99.90;;;;;;6180665;23;20006;-83
2022/10/24 05:33:28;;;;;;;;;;;13.60;99.90;;;;;;6130677;23;19923;-82
2022/10/24 05:35:54;;;;;;;;;;;13.60;99.90;;;;;;6155388;23;20302;-81
2022/10/24 05:38:19;;;;;;;;;;;13.60;99.90;;;;;;6178733;23;19967;-83
2022/10/24 05:40:50;;;;;;;;;;;13.50;99.90;;;;;;6153535;23;20320;-81
2022/10/24 05:43:16;;;;;;;;;;;13.60;99.90;;;;;;6154154;23;20382;-83
2022/10/24 05:45:41;;;;;;;;;;;13.60;99.90;;;;;;6154893;23;19966;-82
2022/10/24 05:48:07;;;;;;;;;;;13.60;99.90;;;;;;6180339;23;20336;-82
2022/10/24 05:50:33;;;;;;;;;;;13.60;99.90;;;;;;6178213;23;19920;-82
2022/10/24 05:52:59;;;;;;;;;;;13.50;99.90;;;;;;6155565;23;20391;-82
2022/10/24 05:55:25;;;;;;;;;;;13.60;99.90;;;;;;6179637;23;19920;-82
2022/10/24 05:57:50;;;;;;;;;;;13.60;99.90;;;;;;6180547;23;20233;-82
2022/10/24 06:00:16;;;;;;;;;;;13.60;99.90;;;;;;6155096;23;20383;-82
2022/10/24 06:02:42;;;;;;;;;;;13.70;99.90;;;;;;6154957;23;19943;-82
2022/10/24 06:05:08;;;;;;;;;;;13.80;99.90;;;;;;6155594;23;19919;-82
2022/10/24 06:07:34;;;;;;;;;;;13.90;99.90;;;;;;6179234;23;19946;-82
2022/10/24 06:09:59;;;;;;;;;;;14.00;99.90;;;;;;6180390;23;20010;-83
2022/10/24 06:12:25;;;;;;;;;;;14.10;99.90;;;;;;6179442;23;19924;-82
2022/10/24 06:14:54;;;;;;;;;;;14.20;99.90;;;;;;6155463;23;19958;-82
2022/10/24 06:17:20;;;;;;;;;;;14.20;99.90;;;;;;6155208;23;19992;-82
2022/10/24 06:19:47;;;;;;;;;;;14.30;99.90;;;;;;6154823;23;20328;-82
2022/10/24 06:22:13;;;;;;;;;;;14.30;99.90;;;;;;6131419;23;19927;-83
2022/10/24 06:24:39;;;;;;;;;;;14.40;99.90;;;;;;6129390;23;19917;-82
2022/10/24 06:27:04;;;;;;;;;;;14.40;99.90;;;;;;6179824;23;19955;-82
2022/10/24 06:29:30;;;;;;;;;;;14.30;99.90;;;;;;6154797;23;20003;-82
2022/10/24 06:31:56;;;;;;;;;;;14.20;99.90;;;;;;6130564;23;19924;-81
2022/10/24 06:34:21;;;;;;;;;;;14.20;99.90;;;;;;6155234;23;20332;-83
2022/10/24 06:36:47;;;;;;;;;;;14.20;99.90;;;;;;6179417;23;20232;-82
2022/10/24 06:39:13;;;;;;;;;;;14.30;99.90;;;;;;6155271;23;19991;-82
2022/10/24 06:41:38;;;;;;;;;;;14.20;99.90;;;;;;6129643;23;19971;-82
2022/10/24 06:44:04;;;;;;;;;;;14.20;99.90;;;;;;6155365;23;20011;-81
2022/10/24 06:46:29;;;;;;;;;;;14.20;99.90;;;;;;6154442;23;19920;-82
2022/10/24 06:48:55;;;;;;;;;;;14.20;99.90;;;;;;6180063;23;20216;-82
2022/10/24 06:51:21;;;;;;;;;;;14.20;99.90;;;;;;6154970;23;19916;-82
2022/10/24 06:53:47;;;;;;;;;;;14.20;99.90;;;;;;6154688;23;20003;-82
2022/10/24 06:56:13;;;;;;;;;;;14.10;99.90;;;;;;6155208;23;19959;-82
2022/10/24 06:58:39;;;;;;;;;;;14.10;99.90;;;;;;6180508;23;19917;-82
2022/10/24 07:01:12;;;;;;;;;;;14.00;99.90;;;;;;6181393;23;19943;-82
2022/10/24 07:03:37;;;;;;;;;;;14.00;99.90;;;;;;6156351;23;19927;-82
2022/10/24 07:06:08;;;;;;;;;;;13.90;99.90;;;;;;6156935;23;19916;-81
2022/10/24 07:08:34;;;;;;;;;;;14.00;99.90;;;;;;6181083;23;19923;-82
2022/10/24 07:10:59;;;;;;;;;;;14.20;99.90;;;;;;6181780;23;19920;-81
2022/10/24 07:13:25;;;;;;;;;;;14.30;99.90;;;;;;6157118;23;20324;-82
2022/10/24 07:15:53;;;;;;;;;;;14.40;99.90;;;;;;6156286;23;19956;-82
2022/10/24 07:18:18;;;;;;;;;;;14.50;99.90;;;;;;6157297;23;19916;-81
2022/10/24 07:20:44;;;;;;;;;;;14.60;99.90;;;;;;6131191;23;20378;-82
2022/10/24 07:23:10;;;;;;;;;;;14.60;99.90;;;;;;6181907;23;19943;-82
2022/10/24 07:25:36;;;;;;;;;;;14.70;99.90;;;;;;6180814;23;20327;-82
2022/10/24 07:28:02;;;;;;;;;;;14.80;99.90;;;;;;6156985;23;19950;-81
2022/10/24 07:30:28;;;;;;;;;;;14.80;99.90;;;;;;6156816;23;19986;-81
2022/10/24 07:32:54;;;;;;;;;;;14.80;99.90;;;;;;6156270;23;20283;-81
2022/10/24 07:35:20;;;;;;;;;;;14.70;99.90;;;;;;6156567;23;19931;-81
2022/10/24 07:37:46;;;;;;;;;;;14.70;99.90;;;;;;6131204;23;19920;-82
2022/10/24 07:40:11;;;;;;;;;;;14.70;99.90;;;;;;6156875;23;20023;-81
2022/10/24 07:42:37;;;;;;;;;;;14.80;99.90;;;;;;6180898;23;19920;-82
2022/10/24 07:45:03;;;;;;;;;;;14.80;99.90;;;;;;6181637;23;19926;-81
2022/10/24 07:47:28;;;;;;;;;;;14.80;99.90;;;;;;6181374;23;19945;-81
2022/10/24 07:49:54;;;;;;;;;;;14.80;99.90;;;;;;6180901;23;19962;-82
2022/10/24 07:52:20;;;;;;;;;;;14.90;99.90;;;;;;6181418;23;19920;-82
2022/10/24 07:54:45;;;;;;;;;;;15.00;99.90;;;;;;6180885;23;19999;-82
2022/10/24 07:57:11;;;;;;;;;;;15.10;99.90;;;;;;6156599;23;19923;-81
2022/10/24 07:59:36;;;;;;;;;;;15.10;99.90;;;;;;6180542;23;19931;-83
2022/10/24 08:02:02;;;;;;;;;;;15.10;99.90;;;;;;6181317;23;19926;-82
2022/10/24 08:04:29;;;;;;;;;;;15.30;99.90;;;;;;6181309;23;19920;-81
2022/10/24 08:06:55;;;;;;;;;;;15.40;99.90;;;;;;6180358;23;20203;-80
2022/10/24 08:09:20;;;;;;;;;;;15.60;99.90;;;;;;6156264;23;19935;-81
2022/10/24 08:11:46;;;;;;;;;;;15.60;99.90;;;;;;6155870;23;19991;-81
2022/10/24 08:14:12;;;;;;;;;;;15.70;99.90;;;;;;6180969;23;19967;-80
2022/10/24 08:16:40;;;;;;;;;;;15.80;99.90;;;;;;6180955;23;19919;-82
2022/10/24 08:19:06;;;;;;;;;;;15.80;99.90;;;;;;6181282;23;19967;-81
2022/10/24 08:21:32;;;;;;;;;;;15.80;99.90;;;;;;6156270;23;19927;-81
2022/10/24 08:23:57;;;;;;;;;;;15.80;99.90;;;;;;6155392;23;19959;-81
2022/10/24 08:26:24;;;;;;;;;;;16.00;99.90;;;;;;6181368;23;20011;-81
2022/10/24 08:28:50;;;;;;;;;;;16.10;99.90;;;;;;6155794;23;19927;-82
2022/10/24 08:31:17;;;;;;;;;;;16.20;99.90;;;;;;6131685;23;19974;-81
2022/10/24 08:33:44;;;;;;;;;;;16.30;99.90;;;;;;6155895;23;19924;-81
2022/10/24 08:36:16;;;;;;;;;;;16.50;99.90;;;;;;6180842;23;20259;-81
2022/10/24 08:38:41;;;;;;;;;;;16.60;99.90;;;;;;6180714;23;19916;-81
2022/10/24 08:41:08;;;;;;;;;;;16.60;99.90;;;;;;6156071;23;20011;-81
2022/10/24 08:43:35;;;;;;;;;;;16.50;99.90;;;;;;6156317;23;20256;-81
2022/10/24 08:46:07;;;;;;;;;;;16.50;99.90;;;;;;6180416;23;19920;-81
2022/10/24 08:48:41;;;;;;;;;;;16.60;99.90;;;;;;6181245;23;20010;-81
2022/10/24 08:51:15;;;;;;;;;;;16.70;99.90;;;;;;6156132;23;19999;-81
2022/10/24 08:53:40;;;;;;;;;;;16.80;99.90;;;;;;6155926;23;19920;-81
2022/10/24 08:56:09;;;;;;;;;;;16.90;99.90;;;;;;6180705;23;19966;-80
2022/10/24 08:58:36;;;;;;;;;;;17.00;99.90;;;;;;6180877;23;19920;-81
2022/10/24 09:01:03;;;;;;;;;;;17.00;99.90;;;;;;6155545;23;19916;-81
2022/10/24 09:03:34;;;;;;;;;;;17.00;99.90;;;;;;6155672;23;19991;-81
2022/10/24 09:06:19;;;;;;;;;;;17.00;99.90;;;;;;6180046;23;19928;-81
2022/10/24 09:08:56;;;;;;;;;;;17.10;99.90;;;;;;6180334;23;20252;-81
2022/10/24 09:11:34;;;;;;;;;;;17.10;99.90;;;;;;6155630;23;19920;-81
2022/10/24 09:14:01;;;;;;;;;;;17.10;99.90;;;;;;6179644;23;19920;-81
2022/10/24 09:16:27;;;;;;;;;;;17.20;99.90;;;;;;6180807;23;19920;-80
2022/10/24 09:18:54;;;;;;;;;;;17.20;99.90;;;;;;6130474;23;19943;-82
2022/10/24 09:21:20;;;;;;;;;;;17.30;99.90;;;;;;6155428;23;20331;-82
2022/10/24 09:23:46;;;;;;;;;;;17.20;99.90;;;;;;6154915;23;19923;-82
2022/10/24 09:26:17;;;;;;;;;;;17.20;99.90;;;;;;6155807;23;19916;-82
2022/10/24 09:28:43;;;;;;;;;;;17.20;99.90;;;;;;6155502;23;19920;-82
2022/10/24 09:31:13;;;;;;;;;;;17.20;99.90;;;;;;6180032;23;20323;-81
2022/10/24 09:33:41;;;;;;;;;;;17.30;99.90;;;;;;6180506;23;19954;-81
2022/10/24 09:36:14;;;;;;;;;;;17.30;99.90;;;;;;6179683;23;20007;-82
2022/10/24 09:38:40;;;;;;;;;;;17.30;99.90;;;;;;6155688;23;19920;-81
2022/10/24 09:41:13;;;;;;;;;;;17.30;99.90;;;;;;6179575;23;20148;-81
2022/10/24 09:43:42;;;;;;;;;;;17.30;99.90;;;;;;6180593;23;19916;-81
2022/10/24 09:46:15;;;;;;;;;;;17.30;99.90;;;;;;6179869;23;20328;-81
2022/10/24 09:48:47;;;;;;;;;;;17.40;99.90;;;;;;6180579;23;19944;-81
2022/10/24 09:51:24;;;;;;;;;;;17.30;99.90;;;;;;6180124;23;19963;-82
2022/10/24 09:54:09;;;;;;;;;;;17.30;99.90;;;;;;6179727;23;19920;-81
2022/10/24 09:56:37;;;;;;;;;;;17.30;99.90;;;;;;6155602;23;19971;-81
2022/10/24 09:59:16;;;;;;;;;;;17.40;99.90;;;;;;6179620;23;19927;-81
2022/10/24 10:01:43;;;;;;;;;;;17.50;99.90;;;;;;6180196;23;19916;-81
2022/10/24 10:04:13;;;;;;;;;;;17.60;99.90;;;;;;6154806;23;19970;-81
2022/10/24 10:06:42;;;;;;;;;;;17.60;99.90;;;;;;6155695;23;20312;-81
2022/10/24 10:09:11;;;;;;;;;;;17.80;99.90;;;;;;6154799;23;20200;-80
2022/10/24 10:11:36;;;;;;;;;;;17.90;99.90;;;;;;6155533;23;19920;-82
2022/10/24 10:14:02;;;;;;;;;;;17.90;99.90;;;;;;6129602;23;19943;-81
2022/10/24 10:16:29;;;;;;;;;;;17.90;99.90;;;;;;6180251;23;19964;-81
2022/10/24 10:19:14;;;;;;;;;;;17.90;99.90;;;;;;6179465;23;19927;-81
2022/10/24 10:22:00;;;;;;;;;;;17.80;99.90;;;;;;6154563;23;20013;-82
2022/10/24 10:24:32;;;;;;;;;;;17.90;99.90;;;;;;6179990;23;19916;-81
2022/10/24 10:26:57;;;;;;;;;;;17.80;99.90;;;;;;6154161;23;19991;-81
2022/10/24 10:29:23;;;;;;;;;;;17.90;99.90;;;;;;6180076;23;19994;-81
2022/10/24 10:32:01;;;;;;;;;;;17.80;99.90;;;;;;6179882;23;19920;-81
2022/10/24 10:34:27;;;;;;;;;;;17.80;99.90;;;;;;6181917;23;19991;-81
2022/10/24 10:37:11;;;;;;;;;;;17.80;99.90;;;;;;6181429;23;20343;-82
2022/10/24 10:39:49;;;;;;;;;;;17.70;99.90;;;;;;6157072;23;20345;-82
2022/10/24 10:42:23;;;;;;;;;;;17.70;99.90;;;;;;6181475;23;20014;-82
2022/10/24 10:44:56;;;;;;;;;;;17.70;99.90;;;;;;6181946;23;20239;-81
2022/10/24 10:47:34;;;;;;;;;;;17.50;99.90;;;;;;6182109;23;19920;-82
2022/10/24 10:50:00;;;;;;;;;;;17.40;99.90;;;;;;6156562;23;20019;-82
2022/10/24 10:52:31;;;;;;;;;;;17.40;99.90;;;;;;6181933;23;19920;-81
2022/10/24 10:55:05;;;;;;;;;;;17.60;99.90;;;;;;6156681;23;19987;-81
2022/10/24 10:58:00;;;;;;;;;;;17.50;99.90;;;;;;6181882;23;19943;-81
2022/10/24 11:00:34;;;;;;;;;;;17.50;99.90;;;;;;6137793;23;19959;-81
2022/10/24 11:03:06;;;;;;;;;;;17.50;99.90;;;;;;6181478;23;20329;-82
2022/10/24 11:05:36;;;;;;;;;;;17.50;99.90;;;;;;6181900;23;19920;-81
2022/10/24 11:08:04;;;;;;;;;;;17.40;99.90;;;;;;6156054;23;19916;-81
2022/10/24 11:10:32;;;;;;;;;;;17.30;99.90;;;;;;6181527;23;19927;-81
2022/10/24 11:13:00;;;;;;;;;;;17.30;99.90;;;;;;6156210;23;19916;-81
2022/10/24 11:15:28;;;;;;;;;;;17.40;99.90;;;;;;6157259;23;19970;-81
2022/10/24 11:17:53;;;;;;;;;;;17.50;99.90;;;;;;6181891;23;19923;-81
2022/10/24 11:20:19;;;;;;;;;;;17.50;99.90;;;;;;6180380;23;19920;-81
2022/10/24 11:22:53;;;;;;;;;;;17.60;99.90;;;;;;6181808;23;19958;-81
2022/10/24 11:25:24;;;;;;;;;;;17.70;99.90;;;;;;6180876;23;20327;-81
2022/10/24 11:28:01;;;;;;;;;;;17.80;99.90;;;;;;6156755;23;19920;-81
2022/10/24 11:30:37;;;;;;;;;;;17.90;99.90;;;;;;6156875;23;19924;-81
2022/10/24 11:33:06;;;;;;;;;;;17.70;99.90;;;;;;6181170;23;19920;-81
2022/10/24 11:35:32;;;;;;;;;;;17.60;99.90;;;;;;6157019;23;19987;-81
2022/10/24 11:38:01;;;;;;;;;;;17.70;99.90;;;;;;6156423;23;20327;-82
2022/10/24 11:40:28;;;;;;;;;;;17.80;99.90;;;;;;6181578;23;19939;-82
2022/10/24 11:43:05;;;;;;;;;;;17.80;99.90;;;;;;6181332;23;19917;-81
2022/10/24 11:45:40;;;;;;;;;;;17.90;99.90;;;;;;6181624;23;19920;-81
2022/10/24 11:48:15;;;;;;;;;;;18.00;99.90;;;;;;6155954;23;19987;-81
2022/10/24 11:50:47;;;;;;;;;;;18.10;99.90;;;;;;6181094;23;19916;-82
2022/10/24 11:53:12;;;;;;;;;;;18.40;99.90;;;;;;6155875;23;19929;-81
2022/10/24 11:55:40;;;;;;;;;;;18.40;99.90;;;;;;6181139;23;19920;-81
2022/10/24 11:58:09;;;;;;;;;;;18.40;99.90;;;;;;6155982;23;19916;-81
2022/10/24 12:00:44;;;;;;;;;;;18.20;99.90;;;;;;6181292;23;19920;-83
2022/10/24 12:03:19;;;;;;;;;;;18.10;99.90;;;;;;6156043;23;19920;-81
2022/10/24 12:05:54;;;;;;;;;;;18.10;99.90;;;;;;6181401;23;19924;-81
2022/10/24 12:08:35;;;;;;;;;;;18.00;99.90;;;;;;6155915;23;20617;-81
2022/10/24 12:11:06;;;;;;;;;;;18.00;99.90;;;;;;6181139;23;19956;-81
2022/10/24 12:13:58;;;;;;;;;;;18.00;99.90;;;;;;6181379;23;19995;-82
2022/10/24 12:16:33;;;;;;;;;;;18.10;99.90;;;;;;6180816;23;20324;-81
2022/10/24 12:19:01;;;;;;;;;;;18.10;99.90;;;;;;6180778;23;20328;-81
2022/10/24 12:21:32;;;;;;;;;;;18.10;99.90;;;;;;6180167;23;19970;-81
2022/10/24 12:23:59;;;;;;;;;;;18.20;99.90;;;;;;6181203;23;19968;-82
2022/10/24 12:26:29;;;;;;;;;;;18.20;99.90;;;;;;6180583;23;19987;-82
2022/10/24 12:28:55;;;;;;;;;;;18.20;99.90;;;;;;6180975;23;19986;-81
2022/10/24 12:31:25;;;;;;;;;;;18.10;99.90;;;;;;6180357;23;20320;-82
2022/10/24 12:34:26;;;;;;;;;;;18.00;99.90;;;;;;6156361;23;19916;-82
2022/10/24 12:37:02;;;;;;;;;;;17.90;99.90;;;;;;6108770;23;19916;-82
2022/10/24 12:39:29;;;;;;;;;;;18.00;99.90;;;;;;6155377;23;19916;-81
2022/10/24 12:41:55;;;;;;;;;;;18.00;99.90;;;;;;6182790;23;19963;-82
2022/10/24 12:44:35;;;;;;;;;;;17.90;99.90;;;;;;6155582;23;19967;-82
2022/10/24 12:47:15;;;;;;;;;;;17.90;99.90;;;;;;6156311;23;19922;-82
2022/10/24 12:49:41;;;;;;;;;;;18.00;99.90;;;;;;6180980;23;20328;-81
2022/10/24 12:52:25;;;;;;;;;;;18.00;99.90;;;;;;6156068;23;19999;-83
2022/10/24 12:54:51;;;;;;;;;;;18.20;99.90;;;;;;6156055;23;19951;-81
2022/10/24 12:57:20;;;;;;;;;;;18.30;99.90;;;;;;6154982;23;19924;-82
2022/10/24 12:59:47;;;;;;;;;;;18.30;99.90;;;;;;6181071;23;19916;-81
2022/10/24 13:02:12;;;;;;;;;;;18.30;99.90;;;;;;6180253;23;19920;-81
2022/10/24 13:04:57;;;;;;;;;;;18.10;99.90;;;;;;6180815;23;20328;-81
2022/10/24 13:07:28;;;;;;;;;;;17.80;99.90;;;;;;6180210;23;20283;-81
2022/10/24 13:10:13;;;;;;;;;;;17.60;99.90;;;;;;6155945;23;19916;-80
2022/10/24 13:12:57;;;;;;;;;;;17.40;99.90;;;;;;6180545;23;19938;-79
2022/10/24 13:15:35;;;;;;;;;;;17.20;99.90;;;;;;6180000;23;19948;-80
2022/10/24 13:18:12;;;;;;;;;;;17.10;99.90;;;;;;6180840;23;20009;-81
2022/10/24 13:20:39;;;;;;;;;;;17.00;99.90;;;;;;6180165;23;19955;-81
2022/10/24 13:23:23;;;;;;;;;;;16.90;99.90;;;;;;6180759;23;19920;-81
2022/10/24 13:25:57;;;;;;;;;;;16.90;99.90;;;;;;6180857;23;19923;-80
2022/10/24 13:28:22;;;;;;;;;;;17.00;99.90;;;;;;6155187;23;19985;-80
2022/10/24 13:30:49;;;;;;;;;;;17.20;99.90;;;;;;6155954;23;20216;-80
2022/10/24 13:33:35;;;;;;;;;;;17.30;99.90;;;;;;6179823;23;19942;-81
2022/10/24 13:36:21;;;;;;;;;;;17.40;99.90;;;;;;6180637;23;19974;-80
2022/10/24 13:39:00;;;;;;;;;;;17.20;99.90;;;;;;6180834;23;20271;-80
2022/10/24 13:41:28;;;;;;;;;;;17.00;99.90;;;;;;6154543;23;19935;-81
2022/10/24 13:43:56;;;;;;;;;;;16.90;99.90;;;;;;6155688;23;19916;-81
2022/10/24 13:46:29;;;;;;;;;;;16.90;99.90;;;;;;6179786;23;20263;-81
2022/10/24 13:48:55;;;;;;;;;;;16.80;99.90;;;;;;6180456;23;20423;-80
2022/10/24 13:51:30;;;;;;;;;;;16.80;99.90;;;;;;6179350;23;19966;-80
2022/10/24 13:53:59;;;;;;;;;;;16.70;99.90;;;;;;6180374;23;19920;-80
2022/10/24 13:56:25;;;;;;;;;;;16.80;99.90;;;;;;6155117;23;19920;-81
2022/10/24 13:58:50;;;;;;;;;;;16.80;99.90;;;;;;6131005;23;19966;-81
2022/10/24 14:01:19;;;;;;;;;;;16.70;99.90;;;;;;6125335;23;19920;-81
2022/10/24 14:03:46;;;;;;;;;;;16.70;99.90;;;;;;6125950;23;19927;-80
2022/10/24 14:06:11;;;;;;;;;;;16.60;99.90;;;;;;6150566;23;20295;-80
2022/10/24 14:08:41;;;;;;;;;;;16.60;99.90;;;;;;6125411;23;19924;-80
2022/10/24 14:11:10;;;;;;;;;;;16.60;99.90;;;;;;6125788;23;19930;-80
2022/10/24 14:13:38;;;;;;;;;;;16.70;99.90;;;;;;6149931;23;19935;-81
2022/10/24 14:16:05;;;;;;;;;;;16.70;99.90;;;;;;6125807;23;19916;-80
2022/10/24 14:18:31;;;;;;;;;;;16.60;99.90;;;;;;6124973;23;19995;-81
2022/10/24 14:20:59;;;;;;;;;;;16.50;99.90;;;;;;6125246;23;19931;-80
2022/10/24 14:23:38;;;;;;;;;;;16.50;99.90;;;;;;6149596;23;19972;-80
2022/10/24 14:26:06;;;;;;;;;;;16.40;99.90;;;;;;6150686;23;20231;-80